createdAt,value
2023-05-04T00:00:35.855Z,95.31
2023-05-04T00:01:35.833Z,95.51
2023-05-04T00:02:35.914Z,94.68
2023-05-04T00:03:35.972Z,95.31
2023-05-04T00:04:35.852Z,95.00
2023-05-04T00:05:35.823Z,95.51
2023-05-04T00:06:35.787Z,94.89
2023-05-04T00:07:35.803Z,95.10
2023-05-04T00:08:35.800Z,95.20
2023-05-04T00:09:35.781Z,95.41
2023-05-04T00:10:35.756Z,95.20
2023-05-04T00:11:35.753Z,94.94
2023-05-04T00:12:35.830Z,94.94
2023-05-04T00:13:35.751Z,95.25
2023-05-04T00:14:35.732Z,95.46
2023-05-04T00:15:35.746Z,95.87
2023-05-04T00:16:35.764Z,96.29
2023-05-04T00:17:35.732Z,96.33
2023-05-04T00:18:35.712Z,96.08
2023-05-04T00:19:35.713Z,95.87
2023-05-04T00:20:35.719Z,95.98
2023-05-04T00:21:35.682Z,96.02
2023-05-04T00:22:36.722Z,95.67
2023-05-04T00:23:35.684Z,96.02
2023-05-04T00:24:35.670Z,95.98
2023-05-04T00:25:35.666Z,95.29
2023-05-04T00:26:35.654Z,95.29
2023-05-04T00:27:35.615Z,95.29
2023-05-04T00:28:35.619Z,95.61
2023-05-04T00:29:35.644Z,95.71
2023-05-04T00:30:35.610Z,96.23
2023-05-04T00:31:35.647Z,96.64
2023-05-04T00:32:35.605Z,96.64
2023-05-04T00:33:35.574Z,96.54
2023-05-04T00:34:35.634Z,96.44
2023-05-04T00:35:35.595Z,96.70
2023-05-04T00:36:35.566Z,96.81
2023-05-04T00:37:35.556Z,96.81
2023-05-04T00:38:35.537Z,96.95
2023-05-04T00:39:35.547Z,97.43
2023-05-04T00:40:35.535Z,97.74
2023-05-04T00:41:35.519Z,97.38
2023-05-04T00:42:35.580Z,97.90
2023-05-04T00:43:35.511Z,97.49
2023-05-04T00:44:35.509Z,96.66
2023-05-04T00:45:35.511Z,96.24
2023-05-04T00:46:35.556Z,95.83
2023-05-04T00:47:35.567Z,95.25
2023-05-04T00:48:35.469Z,95.19
2023-05-04T00:49:35.520Z,95.50
2023-05-04T00:50:35.485Z,95.19
2023-05-04T00:51:35.454Z,95.23
2023-05-04T00:52:35.450Z,95.54
2023-05-04T00:53:35.434Z,96.48
2023-05-04T00:54:35.442Z,95.96
2023-05-04T00:55:35.419Z,95.86
2023-05-04T00:56:35.421Z,96.31
2023-05-04T00:57:35.430Z,96.52
2023-05-04T00:58:35.430Z,96.42
2023-05-04T00:59:35.422Z,96.83
2023-05-04T01:00:35.421Z,96.83
2023-05-04T01:01:35.419Z,97.04
2023-05-04T01:02:35.450Z,96.83
2023-05-04T01:03:35.412Z,97.14
2023-05-04T01:04:35.345Z,97.67
2023-05-04T01:05:35.420Z,97.92
2023-05-04T01:06:35.349Z,97.88
2023-05-04T01:07:35.333Z,97.45
2023-05-04T01:08:35.324Z,97.71
2023-05-04T01:09:35.303Z,97.61
2023-05-04T01:10:35.302Z,97.56
2023-05-04T01:11:35.321Z,98.02
2023-05-04T01:12:35.346Z,98.13
2023-05-04T01:13:35.280Z,97.50
2023-05-04T01:14:35.305Z,97.92
2023-05-04T01:15:35.276Z,97.81
2023-05-04T01:16:35.332Z,98.13
2023-05-04T01:17:35.274Z,98.13
2023-05-04T01:18:35.242Z,98.17
2023-05-04T01:19:35.248Z,97.92
2023-05-04T01:20:35.243Z,98.33
2023-05-04T01:21:35.257Z,98.02
2023-05-04T01:22:35.223Z,98.02
2023-05-04T01:23:35.211Z,98.13
2023-05-04T01:24:35.217Z,97.86
2023-05-04T01:25:35.219Z,98.38
2023-05-04T01:26:35.175Z,98.13
2023-05-04T01:27:35.169Z,98.27
2023-05-04T01:29:07.166Z,98.13
2023-05-04T01:29:35.172Z,98.23
2023-05-04T01:30:35.209Z,98.38
2023-05-04T01:31:35.149Z,98.38
2023-05-04T01:32:35.175Z,97.86
2023-05-04T01:33:35.143Z,98.38
2023-05-04T01:34:35.130Z,98.48
2023-05-04T01:35:35.113Z,98.07
2023-05-04T01:36:35.100Z,98.80
2023-05-04T01:37:36.168Z,98.38
2023-05-04T01:38:35.079Z,98.90
2023-05-04T01:39:35.085Z,98.59
2023-05-04T01:40:35.074Z,99.01
2023-05-04T01:41:35.090Z,98.53
2023-05-04T01:42:35.061Z,98.63
2023-05-04T01:43:35.074Z,98.90
2023-05-04T01:44:35.853Z,98.84
2023-05-04T01:45:35.037Z,98.69
2023-05-04T01:46:35.077Z,98.63
2023-05-04T01:47:35.059Z,99.42
2023-05-04T01:48:35.028Z,99.36
2023-05-04T01:49:34.995Z,99.67
2023-05-04T01:50:34.976Z,98.63
2023-05-04T01:51:35.015Z,98.84
2023-05-04T01:52:34.964Z,98.74
2023-05-04T01:53:34.970Z,99.15
2023-05-04T01:54:34.945Z,99.36
2023-05-04T01:55:34.985Z,99.15
2023-05-04T01:56:34.946Z,99.67
2023-05-04T01:57:34.980Z,99.15
2023-05-04T01:58:34.945Z,99.15
2023-05-04T01:59:34.907Z,99.94
2023-05-04T02:00:34.915Z,99.42
2023-05-04T02:01:34.922Z,99.15
2023-05-04T02:02:35.013Z,99.01
2023-05-04T02:03:34.975Z,99.42
2023-05-04T02:04:34.873Z,99.26
2023-05-04T02:05:34.890Z,99.11
2023-05-04T02:06:35.702Z,99.26
2023-05-04T02:07:34.872Z,99.46
2023-05-04T02:08:34.861Z,99.05
2023-05-04T02:09:34.836Z,99.05
2023-05-04T02:10:34.866Z,99.67
2023-05-04T02:11:35.405Z,99.36
2023-05-04T02:12:34.864Z,98.74
2023-05-04T02:13:34.832Z,99.51
2023-05-04T02:14:34.842Z,99.77
2023-05-04T02:15:34.833Z,99.99
2023-05-04T02:16:34.796Z,99.36
2023-05-04T02:17:34.836Z,99.72
2023-05-04T02:18:34.763Z,99.51
2023-05-04T02:19:34.757Z,99.30
2023-05-04T02:20:34.785Z,99.41
2023-05-04T02:21:34.750Z,99.76
2023-05-04T02:22:34.732Z,99.41
2023-05-04T02:23:34.735Z,99.41
2023-05-04T02:24:34.737Z,99.93
2023-05-04T02:25:34.739Z,99.82
2023-05-04T02:26:34.728Z,99.82
2023-05-04T02:27:34.689Z,99.93
2023-05-04T02:28:34.694Z,99.77
2023-05-04T02:29:34.721Z,99.36
2023-05-04T02:30:34.717Z,99.10
2023-05-04T02:31:34.719Z,99.10
2023-05-04T02:32:34.721Z,99.20
2023-05-04T02:33:34.639Z,99.20
2023-05-04T02:34:34.643Z,99.72
2023-05-04T02:35:34.668Z,99.41
2023-05-04T02:36:34.622Z,99.20
2023-05-04T02:37:34.614Z,99.82
2023-05-04T02:38:34.625Z,99.51
2023-05-04T02:39:34.620Z,99.51
2023-05-04T02:40:34.612Z,99.30
2023-05-04T02:41:34.576Z,99.93
2023-05-04T02:42:34.636Z,99.99
2023-05-04T02:43:34.600Z,99.72
2023-05-04T02:44:34.564Z,99.99
2023-05-04T02:45:34.565Z,99.41
2023-05-04T02:46:34.586Z,99.82
2023-05-04T02:47:34.537Z,99.51
2023-05-04T02:48:34.542Z,99.72
2023-05-04T02:49:34.539Z,99.87
2023-05-04T02:50:34.515Z,99.45
2023-05-04T02:51:34.552Z,99.76
2023-05-04T02:52:34.516Z,98.83
2023-05-04T02:53:34.490Z,99.99
2023-05-04T02:55:07.349Z,99.35
2023-05-04T02:55:34.489Z,99.35
2023-05-04T02:56:34.516Z,99.45
2023-05-04T02:57:34.542Z,99.35
2023-05-04T02:58:34.460Z,99.35
2023-05-04T02:59:34.454Z,99.66
2023-05-04T03:00:34.453Z,99.98
2023-05-04T03:01:35.478Z,99.99
2023-05-04T03:02:34.513Z,99.99
2023-05-04T03:03:34.453Z,99.99
2023-05-04T03:04:34.469Z,99.99
2023-05-04T03:05:34.433Z,99.99
2023-05-04T03:06:34.440Z,99.99
2023-05-04T03:07:34.386Z,99.99
2023-05-04T03:08:34.444Z,99.99
2023-05-04T03:09:34.391Z,99.93
2023-05-04T03:10:34.392Z,99.99
2023-05-04T03:11:34.381Z,99.82
2023-05-04T03:12:34.379Z,99.72
2023-05-04T03:13:34.433Z,99.72
2023-05-04T03:14:34.374Z,99.62
2023-05-04T03:15:34.353Z,99.30
2023-05-04T03:16:34.374Z,99.51
2023-05-04T03:17:34.372Z,99.82
2023-05-04T03:18:53.255Z,99.72
2023-05-04T03:19:34.333Z,99.99
2023-05-04T03:20:34.322Z,99.99
2023-05-04T03:21:34.311Z,99.99
2023-05-04T03:22:34.291Z,99.99
2023-05-04T03:23:34.297Z,99.99
2023-05-04T03:24:34.295Z,99.99
2023-05-04T03:25:34.258Z,99.99
2023-05-04T03:26:34.254Z,99.99
2023-05-04T03:27:34.264Z,99.99
2023-05-04T03:28:34.270Z,99.99
2023-05-04T03:29:34.272Z,99.99
2023-05-04T03:30:34.234Z,99.99
2023-05-04T03:31:34.265Z,99.99
2023-05-04T03:32:34.284Z,99.99
2023-05-04T03:33:34.208Z,99.99
2023-05-04T03:34:34.207Z,99.99
2023-05-04T03:35:34.187Z,99.99
2023-05-04T03:36:34.163Z,99.30
2023-05-04T03:37:34.190Z,99.62
2023-05-04T03:38:34.146Z,99.82
2023-05-04T03:39:34.194Z,99.99
2023-05-04T03:40:34.126Z,99.93
2023-05-04T03:41:34.153Z,99.98
2023-05-04T03:42:34.116Z,99.76
2023-05-04T03:43:34.114Z,99.82
2023-05-04T03:44:34.116Z,99.72
2023-05-04T03:45:34.169Z,99.99
2023-05-04T03:46:34.128Z,99.99
2023-05-04T04:02:48.649Z,99.99
2023-05-04T04:03:48.664Z,99.99
2023-05-04T04:04:48.501Z,99.99
2023-05-04T04:05:49.656Z,99.99
2023-05-04T04:06:49.630Z,99.99
2023-05-04T04:07:49.625Z,99.99
2023-05-04T04:08:49.612Z,99.37
2023-05-04T04:09:49.573Z,99.64
2023-05-04T04:10:49.591Z,99.54
2023-05-04T04:11:49.574Z,99.54
2023-05-04T04:12:49.603Z,99.85
2023-05-04T04:13:49.559Z,99.07
2023-05-04T04:14:49.549Z,99.33
2023-05-04T04:15:49.613Z,98.66
2023-05-04T04:16:49.564Z,98.97
2023-05-04T04:17:49.563Z,98.55
2023-05-04T04:18:49.627Z,98.61
2023-05-04T04:19:49.504Z,98.41
2023-05-04T04:20:49.517Z,98.41
2023-05-04T04:21:49.502Z,97.85
2023-05-04T04:22:49.472Z,97.43
2023-05-04T04:23:49.510Z,97.38
2023-05-04T04:24:49.477Z,97.49
2023-05-04T04:25:49.482Z,96.61
2023-05-04T04:26:49.502Z,96.41
2023-05-04T04:27:49.462Z,96.05
2023-05-04T04:28:49.480Z,95.01
2023-05-04T04:29:49.481Z,94.81
2023-05-04T04:30:49.412Z,94.76
2023-05-04T04:31:50.519Z,94.35
2023-05-04T04:32:49.472Z,93.89
2023-05-04T04:33:49.412Z,92.96
2023-05-04T04:34:49.406Z,93.12
2023-05-04T04:35:49.389Z,92.67
2023-05-04T04:36:49.392Z,91.42
2023-05-04T04:37:49.783Z,91.42
2023-05-04T04:38:49.370Z,91.55
2023-05-04T04:39:49.373Z,89.48
2023-05-04T04:40:49.358Z,88.70
2023-05-04T04:41:49.351Z,89.23
2023-05-04T04:42:49.394Z,88.51
2023-05-04T04:43:49.374Z,88.20
2023-05-04T04:44:49.328Z,88.22
2023-05-04T04:45:49.330Z,87.40
2023-05-04T04:46:49.343Z,87.44
2023-05-04T04:47:49.344Z,86.86
2023-05-04T04:48:49.326Z,88.14
2023-05-04T04:49:49.316Z,88.31
2023-05-04T04:50:49.331Z,88.61
2023-05-04T04:51:49.294Z,88.10
2023-05-04T04:52:49.274Z,87.71
2023-05-04T04:53:49.271Z,87.50
2023-05-04T04:54:49.263Z,86.32
2023-05-04T04:55:49.270Z,85.73
2023-05-04T04:56:49.266Z,85.63
2023-05-04T04:57:49.285Z,85.73
2023-05-04T04:58:49.227Z,84.59
2023-05-04T04:59:49.249Z,84.35
2023-05-04T05:00:49.267Z,83.42
2023-05-04T05:01:49.211Z,82.97
2023-05-04T05:02:49.296Z,82.77
2023-05-04T05:04:21.707Z,83.53
2023-05-04T05:04:49.376Z,83.42
2023-05-04T05:05:49.195Z,83.36
2023-05-04T05:06:49.821Z,84.25
2023-05-04T05:07:49.167Z,83.84
2023-05-04T05:08:49.157Z,83.32
2023-05-04T05:09:49.219Z,84.05
2023-05-04T05:10:49.129Z,83.94
2023-05-04T05:11:49.129Z,84.59
2023-05-04T05:12:49.871Z,84.77
2023-05-04T05:13:49.132Z,84.56
2023-05-04T05:14:49.133Z,83.26
2023-05-04T05:15:49.189Z,84.08
2023-05-04T05:16:49.129Z,84.45
2023-05-04T05:17:49.769Z,83.28
2023-05-04T05:18:49.062Z,83.25
2023-05-04T05:19:50.076Z,83.55
2023-05-04T05:20:49.048Z,82.73
2023-05-04T05:21:49.036Z,82.42
2023-05-04T05:22:49.039Z,83.04
2023-05-04T05:23:49.032Z,83.18
2023-05-04T05:25:20.963Z,83.49
2023-05-04T05:25:49.009Z,83.39
2023-05-04T05:26:48.992Z,83.01
2023-05-04T05:27:49.009Z,83.22
2023-05-04T05:28:48.984Z,83.22
2023-05-04T05:29:48.977Z,83.12
2023-05-04T05:30:48.989Z,83.80
2023-05-04T05:31:48.977Z,82.93
2023-05-04T05:32:49.516Z,83.07
2023-05-04T05:33:49.940Z,83.28
2023-05-04T05:34:48.924Z,82.63
2023-05-04T05:35:48.925Z,83.41
2023-05-04T05:36:48.948Z,81.73
2023-05-04T05:37:49.009Z,80.77
2023-05-04T05:38:50.343Z,81.18
2023-05-04T05:39:49.889Z,81.38
2023-05-04T05:40:48.912Z,80.42
2023-05-04T05:41:48.882Z,79.77
2023-05-04T05:42:48.862Z,79.22
2023-05-04T05:43:48.984Z,79.49
2023-05-04T05:44:48.848Z,78.16
2023-05-04T05:45:48.885Z,78.25
2023-05-04T05:46:48.849Z,78.16
2023-05-04T05:47:48.858Z,77.54
2023-05-04T05:48:48.860Z,78.53
2023-05-04T05:49:48.822Z,79.19
2023-05-04T05:50:48.823Z,79.56
2023-05-04T05:51:48.808Z,79.46
2023-05-04T05:52:48.788Z,79.29
2023-05-04T05:53:48.812Z,80.52
2023-05-04T05:54:48.773Z,81.32
2023-05-04T05:55:48.754Z,81.52
2023-05-04T05:56:48.773Z,81.42
2023-05-04T05:57:48.786Z,81.62
2023-05-04T05:58:48.740Z,81.48
2023-05-04T05:59:48.765Z,81.45
2023-05-04T06:00:48.724Z,79.80
2023-05-04T06:01:48.743Z,79.87
2023-05-04T06:02:48.806Z,79.42
2023-05-04T06:03:48.863Z,78.36
2023-05-04T06:04:48.728Z,78.36
2023-05-04T06:05:48.687Z,77.44
2023-05-04T06:06:48.681Z,77.81
2023-05-04T06:07:48.656Z,77.47
2023-05-04T06:08:48.656Z,76.10
2023-05-04T06:09:48.658Z,76.34
2023-05-04T06:10:48.657Z,76.54
2023-05-04T06:11:48.670Z,75.93
2023-05-04T06:12:48.645Z,76.10
2023-05-04T06:13:49.609Z,75.82
2023-05-04T06:14:48.592Z,77.36
2023-05-04T06:15:48.599Z,75.89
2023-05-04T06:16:48.650Z,75.35
2023-05-04T06:17:48.657Z,75.96
2023-05-04T06:18:48.558Z,74.66
2023-05-04T06:19:50.863Z,74.05
2023-05-04T06:20:49.547Z,73.68
2023-05-04T06:21:48.609Z,72.28
2023-05-04T06:22:48.533Z,71.39
2023-05-04T06:23:48.547Z,69.73
2023-05-04T06:24:48.524Z,69.12
2023-05-04T06:25:49.355Z,69.56
2023-05-04T06:26:48.539Z,70.14
2023-05-04T06:27:48.540Z,72.11
2023-05-04T06:28:48.534Z,72.55
2023-05-04T06:29:48.506Z,73.44
2023-05-04T06:30:48.546Z,74.11
2023-05-04T06:31:48.617Z,72.65
2023-05-04T06:32:48.569Z,72.34
2023-05-04T06:33:48.529Z,72.75
2023-05-04T06:34:48.531Z,72.55
2023-05-04T06:35:48.428Z,72.86
2023-05-04T06:36:48.433Z,71.56
2023-05-04T06:37:48.430Z,71.26
2023-05-04T06:38:48.427Z,71.15
2023-05-04T06:39:48.409Z,71.60
2023-05-04T06:40:48.461Z,70.48
2023-05-04T06:41:48.411Z,71.39
2023-05-04T06:42:48.494Z,70.37
2023-05-04T06:43:49.412Z,70.23
2023-05-04T06:44:48.409Z,71.84
2023-05-04T06:45:48.430Z,70.81
2023-05-04T06:46:48.382Z,70.51
2023-05-04T06:47:48.449Z,71.29
2023-05-04T06:48:48.369Z,71.63
2023-05-04T06:49:48.371Z,72.31
2023-05-04T06:50:48.352Z,71.53
2023-05-04T06:51:48.346Z,70.14
2023-05-04T06:52:48.326Z,69.73
2023-05-04T06:53:48.297Z,69.32
2023-05-04T06:54:48.331Z,67.49
2023-05-04T06:55:48.308Z,67.83
2023-05-04T06:56:48.325Z,68.07
2023-05-04T06:57:48.272Z,69.53
2023-05-04T06:58:48.343Z,69.76
2023-05-04T06:59:48.281Z,70.24
2023-05-04T07:00:48.291Z,68.81
2023-05-04T07:01:48.250Z,69.02
2023-05-04T07:02:48.285Z,68.17
2023-05-04T07:03:48.290Z,68.48
2023-05-04T07:04:48.233Z,67.93
2023-05-04T07:05:48.231Z,67.83
2023-05-04T07:06:48.223Z,68.07
2023-05-04T07:07:51.022Z,69.09
2023-05-04T07:08:48.185Z,68.01
2023-05-04T07:09:48.179Z,67.08
2023-05-04T07:10:48.198Z,68.34
2023-05-04T07:11:48.157Z,66.99
2023-05-04T07:12:48.304Z,68.24
2023-05-04T07:13:48.170Z,67.49
2023-05-04T07:14:48.178Z,67.36
2023-05-04T07:15:48.180Z,67.63
2023-05-04T07:16:48.320Z,68.84
2023-05-04T07:17:48.172Z,69.39
2023-05-04T07:18:48.098Z,68.71
2023-05-04T07:19:48.107Z,67.57
2023-05-04T07:20:48.111Z,66.68
2023-05-04T07:21:48.122Z,66.99
2023-05-04T07:22:48.081Z,67.16
2023-05-04T07:23:48.078Z,68.10
2023-05-04T07:24:48.204Z,68.65
2023-05-04T07:25:48.079Z,69.26
2023-05-04T07:26:48.062Z,68.10
2023-05-04T07:27:48.093Z,68.24
2023-05-04T07:28:48.789Z,65.84
2023-05-04T07:29:48.034Z,64.33
2023-05-04T07:30:48.023Z,63.15
2023-05-04T07:31:48.020Z,63.26
2023-05-04T07:32:48.050Z,63.82
2023-05-04T07:33:47.994Z,63.73
2023-05-04T07:34:48.010Z,62.92
2023-05-04T07:35:47.978Z,62.45
2023-05-04T07:36:47.958Z,62.78
2023-05-04T07:37:47.978Z,63.39
2023-05-04T07:38:47.994Z,63.39
2023-05-04T07:39:48.000Z,62.89
2023-05-04T07:40:47.941Z,62.78
2023-05-04T07:41:49.623Z,64.20
2023-05-04T07:42:47.976Z,62.72
2023-05-04T07:43:47.971Z,62.41
2023-05-04T07:44:47.918Z,63.35
2023-05-04T07:45:48.035Z,63.23
2023-05-04T07:46:48.039Z,61.85
2023-05-04T07:47:47.934Z,61.44
2023-05-04T07:48:47.969Z,59.49
2023-05-04T07:49:47.890Z,60.13
2023-05-04T07:50:47.871Z,59.90
2023-05-04T07:51:47.878Z,59.03
2023-05-04T07:52:47.852Z,58.54
2023-05-04T07:53:47.889Z,58.22
2023-05-04T07:54:47.878Z,57.61
2023-05-04T07:55:47.847Z,57.81
2023-05-04T07:56:47.869Z,58.04
2023-05-04T07:57:47.832Z,58.19
2023-05-04T07:58:47.809Z,56.47
2023-05-04T07:59:47.795Z,53.95
2023-05-04T08:00:47.809Z,52.12
2023-05-04T08:01:47.807Z,51.49
2023-05-04T08:02:47.857Z,52.24
2023-05-04T08:03:47.764Z,50.07
2023-05-04T08:04:47.781Z,49.74
2023-05-04T08:05:47.751Z,48.49
2023-05-04T08:06:47.777Z,48.69
2023-05-04T08:07:47.737Z,49.09
2023-05-04T08:08:47.791Z,48.72
2023-05-04T08:09:47.738Z,50.07
2023-05-04T08:10:47.712Z,52.29
2023-05-04T08:11:48.265Z,52.51
2023-05-04T08:12:47.727Z,53.32
2023-05-04T08:13:47.710Z,54.35
2023-05-04T08:14:47.707Z,53.55
2023-05-04T08:15:47.698Z,51.97
2023-05-04T08:16:47.683Z,52.92
2023-05-04T08:17:47.685Z,54.33
2023-05-04T08:18:47.683Z,54.03
2023-05-04T08:19:47.654Z,54.10
2023-05-04T08:20:47.656Z,51.81
2023-05-04T08:21:47.666Z,52.32
2023-05-04T08:22:47.663Z,52.29
2023-05-04T08:23:47.647Z,52.44
2023-05-04T08:24:47.723Z,50.69
2023-05-04T08:25:47.607Z,49.94
2023-05-04T08:26:59.761Z,49.94
2023-05-04T08:27:49.626Z,50.24
2023-05-04T08:28:47.577Z,50.07
2023-05-04T08:29:47.593Z,50.79
2023-05-04T08:30:47.576Z,50.34
2023-05-04T08:31:47.613Z,49.40
2023-05-04T08:32:47.624Z,49.41
2023-05-04T08:33:47.541Z,50.59
2023-05-04T08:34:47.535Z,50.79
2023-05-04T08:35:47.538Z,50.46
2023-05-04T08:36:47.536Z,51.59
2023-05-04T08:37:47.547Z,50.69
2023-05-04T08:38:47.514Z,50.20
2023-05-04T08:39:47.535Z,48.00
2023-05-04T08:40:49.967Z,47.88
2023-05-04T08:41:47.473Z,46.98
2023-05-04T08:42:47.529Z,47.02
2023-05-04T08:43:47.506Z,47.38
2023-05-04T08:44:47.483Z,47.78
2023-05-04T08:45:47.499Z,46.61
2023-05-04T08:46:47.461Z,48.85
2023-05-04T08:47:47.474Z,47.65
2023-05-04T08:48:47.439Z,48.37
2023-05-04T08:49:47.419Z,49.74
2023-05-04T08:50:47.475Z,50.20
2023-05-04T08:51:47.438Z,47.63
2023-05-04T08:52:47.450Z,47.88
2023-05-04T08:53:47.451Z,46.64
2023-05-04T08:54:47.396Z,46.47
2023-05-04T08:55:47.427Z,45.97
2023-05-04T08:56:47.470Z,46.44
2023-05-04T08:57:48.177Z,46.49
2023-05-04T08:58:47.418Z,45.43
2023-05-04T08:59:47.380Z,44.14
2023-05-04T09:00:47.993Z,45.23
2023-05-04T09:01:47.405Z,45.00
2023-05-04T09:02:47.449Z,47.16
2023-05-04T09:03:47.575Z,47.80
2023-05-04T09:04:47.324Z,48.65
2023-05-04T09:05:47.365Z,50.44
2023-05-04T09:06:47.544Z,50.26
2023-05-04T09:07:47.315Z,50.34
2023-05-04T09:08:47.327Z,49.77
2023-05-04T09:09:47.910Z,47.92
2023-05-04T09:10:47.367Z,49.40
2023-05-04T09:11:47.283Z,50.87
2023-05-04T09:12:47.295Z,52.17
2023-05-04T09:13:47.300Z,53.09
2023-05-04T09:14:47.281Z,52.62
2023-05-04T09:15:47.301Z,52.72
2023-05-04T09:16:47.301Z,52.32
2023-05-04T09:17:57.021Z,50.17
2023-05-04T09:18:49.237Z,48.67
2023-05-04T09:19:47.259Z,49.99
2023-05-04T09:20:47.275Z,48.65
2023-05-04T09:21:47.259Z,49.72
2023-05-04T09:22:47.283Z,50.29
2023-05-04T09:23:47.258Z,50.74
2023-05-04T09:24:47.189Z,49.59
2023-05-04T09:25:47.216Z,49.47
2023-05-04T09:26:47.223Z,50.04
2023-05-04T09:27:47.172Z,50.07
2023-05-04T09:28:47.190Z,48.55
2023-05-04T09:29:47.250Z,48.38
2023-05-04T09:30:47.186Z,46.61
2023-05-04T09:31:47.158Z,46.69
2023-05-04T09:32:47.197Z,46.47
2023-05-04T09:33:47.109Z,45.67
2023-05-04T09:34:47.126Z,46.94
2023-05-04T09:35:47.101Z,49.27
2023-05-04T09:36:47.135Z,47.61
2023-05-04T09:37:47.103Z,47.17
2023-05-04T09:38:47.100Z,45.73
2023-05-04T09:39:47.081Z,45.95
2023-05-04T09:40:47.055Z,48.35
2023-05-04T09:41:47.127Z,49.60
2023-05-04T09:42:47.071Z,49.90
2023-05-04T09:43:47.052Z,50.52
2023-05-04T09:44:47.050Z,50.72
2023-05-04T09:45:47.054Z,50.04
2023-05-04T09:46:47.078Z,51.99
2023-05-04T09:47:47.083Z,52.04
2023-05-04T09:48:47.044Z,52.89
2023-05-04T09:49:47.035Z,53.14
2023-05-04T09:50:47.047Z,52.89
2023-05-04T09:51:46.983Z,53.70
2023-05-04T09:52:47.028Z,53.17
2023-05-04T09:53:46.983Z,53.12
2023-05-04T09:54:47.027Z,52.59
2023-05-04T09:55:46.951Z,50.32
2023-05-04T09:56:47.075Z,50.24
2023-05-04T09:57:46.939Z,52.19
2023-05-04T09:58:46.964Z,53.37
2023-05-04T09:59:46.967Z,54.55
2023-05-04T10:00:46.965Z,53.77
2023-05-04T10:01:46.912Z,52.72
2023-05-04T10:02:46.991Z,52.42
2023-05-04T10:03:46.898Z,52.24
2023-05-04T10:04:46.930Z,50.67
2023-05-04T10:05:46.911Z,50.42
2023-05-04T10:06:46.852Z,49.33
2023-05-04T10:07:46.857Z,47.69
2023-05-04T10:08:46.884Z,48.21
2023-05-04T10:09:46.873Z,48.31
2023-05-04T10:10:46.905Z,48.50
2023-05-04T10:11:46.832Z,47.05
2023-05-04T10:12:46.873Z,46.33
2023-05-04T10:13:46.832Z,45.81
2023-05-04T10:14:46.983Z,45.11
2023-05-04T10:15:52.051Z,47.49
2023-05-04T10:16:46.792Z,47.37
2023-05-04T10:17:46.820Z,46.45
2023-05-04T10:18:46.769Z,45.93
2023-05-04T10:19:46.752Z,45.61
2023-05-04T10:20:46.789Z,45.95
2023-05-04T10:21:46.762Z,47.05
2023-05-04T10:22:46.724Z,47.05
2023-05-04T10:23:46.726Z,46.65
2023-05-04T10:24:46.755Z,46.15
2023-05-04T10:25:46.752Z,45.53
2023-05-04T10:26:46.701Z,45.48
2023-05-04T10:27:46.714Z,47.41
2023-05-04T10:28:46.699Z,47.29
2023-05-04T10:29:46.702Z,46.99
2023-05-04T10:30:46.698Z,46.97
2023-05-04T10:31:46.747Z,47.25
2023-05-04T10:32:46.703Z,46.65
2023-05-04T10:33:46.687Z,47.13
2023-05-04T10:34:46.648Z,45.73
2023-05-04T10:35:46.646Z,45.41
2023-05-04T10:36:46.651Z,44.81
2023-05-04T10:37:46.636Z,45.51
2023-05-04T10:38:46.671Z,46.42
2023-05-04T10:39:46.627Z,48.46
2023-05-04T10:40:46.675Z,48.35
2023-05-04T10:41:46.598Z,48.38
2023-05-04T10:42:46.634Z,49.33
2023-05-04T10:43:46.581Z,48.13
2023-05-04T10:44:46.699Z,48.21
2023-05-04T10:45:46.623Z,47.56
2023-05-04T10:46:46.652Z,46.42
2023-05-04T10:47:47.291Z,46.45
2023-05-04T10:48:46.572Z,47.24
2023-05-04T10:49:46.534Z,49.37
2023-05-04T10:50:46.589Z,50.27
2023-05-04T10:51:49.362Z,50.40
2023-05-04T10:52:47.539Z,48.33
2023-05-04T10:53:46.524Z,47.91
2023-05-04T10:54:46.565Z,48.25
2023-05-04T10:55:46.494Z,48.40
2023-05-04T10:56:46.498Z,48.38
2023-05-04T10:57:46.482Z,50.12
2023-05-04T10:58:46.540Z,50.12
2023-05-04T10:59:46.479Z,49.82
2023-05-04T11:00:46.475Z,49.48
2023-05-04T11:01:46.463Z,48.53
2023-05-04T11:02:46.543Z,47.75
2023-05-04T11:03:46.480Z,48.70
2023-05-04T11:04:46.456Z,49.45
2023-05-04T11:05:46.425Z,49.10
2023-05-04T11:06:46.435Z,47.25
2023-05-04T11:07:46.423Z,47.32
2023-05-04T11:08:46.424Z,45.79
2023-05-04T11:09:46.457Z,45.17
2023-05-04T11:10:46.409Z,44.67
2023-05-04T11:11:46.377Z,44.34
2023-05-04T11:12:46.462Z,45.95
2023-05-04T11:13:46.385Z,48.18
2023-05-04T11:14:46.387Z,49.57
2023-05-04T11:15:46.356Z,48.41
2023-05-04T11:16:46.404Z,48.19
2023-05-04T11:17:46.409Z,46.59
2023-05-04T11:18:46.342Z,47.29
2023-05-04T11:19:46.365Z,47.34
2023-05-04T11:20:46.338Z,47.20
2023-05-04T11:21:46.305Z,45.89
2023-05-04T11:22:46.294Z,45.47
2023-05-04T11:23:46.313Z,45.93
2023-05-04T11:24:46.303Z,45.51
2023-05-04T11:25:46.298Z,45.68
2023-05-04T11:26:46.370Z,44.70
2023-05-04T11:27:46.273Z,44.98
2023-05-04T11:28:46.342Z,46.28
2023-05-04T11:29:46.252Z,49.12
2023-05-04T11:30:46.439Z,49.45
2023-05-04T11:31:46.245Z,46.00
2023-05-04T11:32:46.251Z,46.20
2023-05-04T11:33:46.263Z,45.37
2023-05-04T11:34:46.200Z,45.06
2023-05-04T11:35:46.222Z,44.81
2023-05-04T11:36:47.153Z,45.34
2023-05-04T11:37:46.199Z,48.08
2023-05-04T11:38:46.179Z,47.16
2023-05-04T11:39:46.172Z,45.90
2023-05-04T11:40:46.152Z,45.85
2023-05-04T11:41:46.196Z,44.14
2023-05-04T11:42:46.162Z,45.21
2023-05-04T11:43:46.164Z,44.58
2023-05-04T11:44:46.152Z,45.78
2023-05-04T11:45:46.123Z,45.15
2023-05-04T11:46:46.303Z,45.73
2023-05-04T11:47:46.129Z,45.14
2023-05-04T11:48:46.110Z,45.18
2023-05-04T11:49:46.905Z,45.42
2023-05-04T11:50:46.109Z,47.00
2023-05-04T11:51:46.108Z,48.45
2023-05-04T11:52:46.120Z,49.62
2023-05-04T11:53:46.090Z,48.10
2023-05-04T11:54:46.069Z,47.88
2023-05-04T11:55:46.080Z,47.26
2023-05-04T11:56:47.046Z,46.96
2023-05-04T11:57:46.051Z,47.03
2023-05-04T11:58:46.050Z,45.74
2023-05-04T11:59:46.055Z,47.63
2023-05-04T12:00:46.118Z,47.83
2023-05-04T12:01:46.062Z,46.59
2023-05-04T12:02:46.134Z,45.60
2023-05-04T12:03:53.838Z,45.82
2023-05-04T12:04:48.005Z,45.67
2023-05-04T12:05:45.991Z,45.55
2023-05-04T12:06:45.992Z,45.03
2023-05-04T12:07:45.981Z,44.32
2023-05-04T12:08:45.966Z,45.19
2023-05-04T12:09:45.950Z,43.80
2023-05-04T12:10:45.987Z,44.15
2023-05-04T12:11:46.152Z,44.65
2023-05-04T12:12:45.989Z,44.25
2023-05-04T12:13:45.942Z,42.58
2023-05-04T12:14:45.905Z,43.80
2023-05-04T12:15:45.946Z,44.57
2023-05-04T12:16:45.983Z,44.67
2023-05-04T12:17:45.933Z,44.62
2023-05-04T12:18:45.906Z,45.51
2023-05-04T12:19:45.948Z,44.10
2023-05-04T12:20:45.865Z,43.01
2023-05-04T12:21:45.885Z,44.00
2023-05-04T12:22:45.866Z,43.42
2023-05-04T12:23:45.852Z,44.16
2023-05-04T12:24:45.861Z,44.44
2023-05-04T12:25:57.427Z,42.79
2023-05-04T12:26:47.821Z,44.38
2023-05-04T12:27:45.827Z,44.04
2023-05-04T12:28:45.832Z,43.72
2023-05-04T12:29:45.841Z,42.63
2023-05-04T12:30:45.784Z,43.24
2023-05-04T12:31:45.846Z,43.29
2023-05-04T12:32:45.906Z,44.87
2023-05-04T12:33:45.772Z,45.39
2023-05-04T12:34:45.781Z,44.35
2023-05-04T12:35:45.814Z,42.53
2023-05-04T12:36:45.773Z,42.29
2023-05-04T12:37:45.783Z,44.62
2023-05-04T12:38:45.737Z,46.48
2023-05-04T12:39:45.762Z,47.22
2023-05-04T12:40:45.752Z,46.31
2023-05-04T12:41:45.718Z,46.92
2023-05-04T12:42:45.700Z,46.92
2023-05-04T12:43:45.717Z,46.50
2023-05-04T12:44:45.690Z,46.24
2023-05-04T12:45:45.830Z,45.34
2023-05-04T12:46:45.733Z,45.50
2023-05-04T12:47:45.784Z,45.10
2023-05-04T12:48:45.673Z,42.73
2023-05-04T12:49:45.679Z,42.23
2023-05-04T12:50:45.659Z,42.67
2023-05-04T12:51:45.624Z,44.09
2023-05-04T12:52:45.664Z,43.43
2023-05-04T12:53:45.641Z,42.17
2023-05-04T12:54:45.613Z,42.45
2023-05-04T12:55:45.621Z,42.15
2023-05-04T12:56:45.596Z,42.77
2023-05-04T12:57:45.617Z,42.77
2023-05-04T12:58:45.583Z,41.93
2023-05-04T12:59:45.613Z,41.82
2023-05-04T13:00:46.130Z,41.22
2023-05-04T13:01:46.659Z,41.42
2023-05-04T13:02:45.621Z,40.80
2023-05-04T13:03:45.629Z,41.08
2023-05-04T13:04:45.600Z,41.31
2023-05-04T13:05:45.562Z,42.53
2023-05-04T13:06:48.218Z,42.65
2023-05-04T13:07:46.524Z,43.30